createdAt,value
2018-06-22T03:37:41.938Z,33.3
2018-06-22T03:38:32.044Z,33.4
2018-06-22T03:39:21.228Z,33.4
2018-06-22T03:40:11.018Z,33.4
2018-06-22T03:41:01.659Z,33.4
2018-06-22T03:41:52.256Z,33.3
2018-06-22T03:42:42.071Z,33.4
2018-06-22T03:43:32.089Z,33.3
2018-06-22T03:44:21.574Z,33.4
2018-06-22T03:45:12.189Z,33.4
2018-06-22T03:46:02.605Z,33.3
2018-06-22T03:46:52.097Z,33.3
2018-06-22T03:47:42.402Z,33.3
2018-06-22T03:48:32.244Z,33.3
2018-06-22T03:49:22.822Z,33.3
2018-06-22T03:50:12.055Z,33.3
2018-06-22T03:51:02.119Z,33.3
2018-06-22T03:51:52.471Z,33.3
2018-06-22T03:52:43.044Z,33.3
2018-06-22T03:53:32.888Z,33.3
2018-06-22T03:54:22.927Z,33.3
2018-06-22T03:55:13.550Z,33.3
2018-06-22T03:56:02.489Z,33.3
2018-06-22T03:56:53.974Z,33.3
2018-06-22T03:57:42.624Z,33.3
2018-06-22T03:58:33.007Z,33.3
2018-06-22T03:59:23.567Z,33.3
2018-06-22T04:00:13.660Z,33.3
2018-06-22T04:01:03.440Z,33.3
2018-06-22T04:01:53.257Z,33.3
2018-06-22T04:02:43.891Z,33.3
2018-06-22T04:03:32.873Z,33.3
2018-06-22T04:04:23.960Z,33.3
2018-06-22T04:05:13.189Z,33.3
2018-06-22T04:06:04.098Z,33.3
2018-06-22T04:06:53.881Z,33.2
2018-06-22T04:07:44.538Z,33.2
2018-06-22T04:08:34.319Z,33.2
2018-06-22T04:09:23.867Z,33.2
2018-06-22T04:10:13.650Z,33.2
2018-06-22T04:11:03.742Z,33.2
2018-06-22T04:11:54.040Z,33.1
2018-06-22T04:12:43.662Z,33.1
2018-06-22T04:13:34.393Z,33.1
2018-06-22T04:14:23.509Z,33.1
2018-06-22T04:15:14.588Z,33.1
2018-06-22T04:16:04.379Z,33.1
2018-06-22T04:16:53.693Z,33.1
2018-06-22T04:17:44.048Z,33.1
2018-06-22T04:18:33.799Z,33.1
2018-06-22T04:19:24.631Z,33.1
2018-06-22T04:20:13.734Z,33.1
2018-06-22T04:21:04.205Z,33.1
2018-06-22T04:21:54.527Z,33.1
2018-06-22T04:22:44.646Z,33.1
2018-06-22T04:23:34.388Z,33
2018-06-22T04:24:25.030Z,33
2018-06-22T04:25:15.320Z,33
2018-06-22T04:26:05.665Z,33
2018-06-22T04:26:55.433Z,33
2018-06-22T04:27:46.021Z,33
2018-06-22T04:28:36.085Z,32.9
2018-06-22T04:29:26.167Z,33
2018-06-22T04:30:15.120Z,33
2018-06-22T04:31:05.806Z,33
2018-06-22T04:31:56.356Z,33
2018-06-22T04:32:45.850Z,33
2018-06-22T04:33:36.532Z,32.9
2018-06-22T04:34:25.462Z,32.9
2018-06-22T04:35:15.021Z,32.9
2018-06-22T04:36:06.448Z,32.9
2018-06-22T04:36:56.746Z,32.9
2018-06-22T04:37:46.807Z,32.9
2018-06-22T04:38:37.101Z,32.9
2018-06-22T04:39:26.628Z,32.9
2018-06-22T04:40:16.446Z,32.9
2018-06-22T04:41:06.268Z,32.9
2018-06-22T04:41:56.872Z,32.9
2018-06-22T04:42:45.766Z,32.9
2018-06-22T04:43:36.687Z,32.9
2018-06-22T04:44:26.782Z,32.9
2018-06-22T04:45:17.087Z,32.9
2018-06-22T04:46:07.220Z,32.9
2018-06-22T04:46:56.941Z,32.9
2018-06-22T04:47:47.923Z,32.9
2018-06-22T04:48:36.846Z,32.9
2018-06-22T04:49:27.144Z,32.9
2018-06-22T04:50:17.590Z,32.9
2018-06-22T04:51:07.038Z,32.9
2018-06-22T04:51:57.737Z,32.9
2018-06-22T04:52:47.029Z,32.9
2018-06-22T04:53:37.519Z,32.9
2018-06-22T04:54:27.880Z,32.9
2018-06-22T04:55:18.122Z,32.9
2018-06-22T04:56:08.089Z,32.9
2018-06-22T04:56:57.969Z,32.9
2018-06-22T04:57:48.057Z,32.9
2018-06-22T04:58:38.355Z,32.9
2018-06-22T04:59:28.173Z,32.8
2018-06-22T05:00:18.307Z,32.8
2018-06-22T05:01:08.632Z,32.8
2018-06-22T05:01:58.367Z,32.8
2018-06-22T05:02:47.958Z,32.8
2018-06-22T05:03:39.443Z,32.8
2018-06-22T05:04:28.319Z,32.8
2018-06-22T05:05:18.991Z,32.8
2018-06-22T05:06:09.009Z,32.8
2018-06-22T05:06:58.309Z,32.8
2018-06-22T05:07:48.569Z,32.8
2018-06-22T05:08:39.199Z,32.8
2018-06-22T05:09:29.541Z,32.8
2018-06-22T05:10:18.814Z,32.8
2018-06-22T05:11:08.542Z,32.8
2018-06-22T05:11:58.899Z,32.8
2018-06-22T05:12:49.284Z,32.8
2018-06-22T05:13:39.295Z,32.8
2018-06-22T05:14:29.343Z,32.8
2018-06-22T05:15:18.895Z,32.7
2018-06-22T05:16:09.240Z,32.7
2018-06-22T05:16:58.458Z,32.7
2018-06-22T05:17:49.365Z,32.7
2018-06-22T05:18:39.943Z,32.7
2018-06-22T05:19:30.030Z,32.7
2018-06-22T05:20:19.858Z,32.7
2018-06-22T05:21:09.597Z,32.7
2018-06-22T05:22:00.217Z,32.7
2018-06-22T05:22:50.670Z,32.7
2018-06-22T05:23:39.814Z,32.7
2018-06-22T05:24:30.444Z,32.7
2018-06-22T05:25:20.333Z,32.7
2018-06-22T05:26:10.282Z,32.6
2018-06-22T05:26:59.721Z,32.7
2018-06-22T05:27:50.211Z,32.7
2018-06-22T05:28:40.232Z,32.6
2018-06-22T05:29:29.946Z,32.6
2018-06-22T05:30:20.460Z,32.6
2018-06-22T05:31:10.707Z,32.6
2018-06-22T05:32:00.704Z,32.6
2018-06-22T05:32:51.041Z,32.6
2018-06-22T05:33:40.884Z,32.6
2018-06-22T05:34:30.857Z,32.6
2018-06-22T05:35:20.953Z,32.6
2018-06-22T05:36:10.903Z,32.6
2018-06-22T05:37:01.434Z,32.6
2018-06-22T05:37:50.031Z,31.1
2018-06-22T05:38:41.244Z,26.9
2018-06-22T05:39:31.086Z,32.8
2018-06-22T05:40:21.676Z,34.6
2018-06-22T05:41:11.424Z,34.1
2018-06-22T05:42:01.196Z,33.6
2018-06-22T05:42:51.832Z,33.3
2018-06-22T05:43:40.777Z,33.1
2018-06-22T05:44:30.869Z,33
2018-06-22T05:45:21.470Z,32.9
2018-06-22T05:46:10.667Z,32.9
2018-06-22T05:47:02.149Z,32.9
2018-06-22T05:47:51.934Z,32.8
2018-06-22T05:48:41.166Z,32.8
2018-06-22T05:49:31.347Z,32.8
2018-06-22T05:50:22.416Z,32.8
2018-06-22T05:51:11.669Z,32.8
2018-06-22T05:52:02.016Z,32.8
2018-06-22T05:52:51.776Z,32.8
2018-06-22T05:53:42.147Z,32.8
2018-06-22T05:54:31.422Z,32.8
2018-06-22T05:55:21.997Z,32.8
2018-06-22T05:56:12.886Z,32.8
2018-06-22T05:57:02.927Z,31.9
2018-06-22T05:57:52.676Z,33.9
2018-06-22T05:58:42.766Z,37.1
2018-06-22T05:59:32.286Z,37.7
2018-06-22T06:00:22.633Z,37.3
2018-06-22T06:01:12.666Z,36.4
2018-06-22T06:02:02.819Z,35.4
2018-06-22T06:02:53.360Z,34.7
2018-06-22T06:03:43.461Z,34.6
2018-06-22T06:04:32.715Z,34.8
2018-06-22T06:05:23.270Z,35
2018-06-22T06:06:13.335Z,35.1
2018-06-22T06:07:03.708Z,35.2
2018-06-22T06:07:53.464Z,35.1
2018-06-22T06:08:43.592Z,35.1
2018-06-22T06:09:33.862Z,35.1
2018-06-22T06:10:23.738Z,35.3
2018-06-22T06:11:14.335Z,35.4
2018-06-22T06:12:04.085Z,35.5
2018-06-22T06:12:54.125Z,35.6
2018-06-22T06:13:43.937Z,35.8
2018-06-22T06:14:33.210Z,35.8
2018-06-22T06:15:24.294Z,35.9
2018-06-22T06:16:14.367Z,36.1
2018-06-22T06:17:04.275Z,36.1
2018-06-22T06:17:53.927Z,36.3
2018-06-22T06:18:44.490Z,36.4
2018-06-22T06:19:33.819Z,36.6
2018-06-22T06:20:23.676Z,36.7
2018-06-22T06:21:14.213Z,36.9
2018-06-22T06:22:03.971Z,37
2018-06-22T06:22:54.646Z,37.1
2018-06-22T06:23:44.410Z,37.3
2018-06-22T06:24:34.755Z,37.4
2018-06-22T06:25:24.260Z,37.6
2018-06-22T06:26:14.300Z,37.7
2018-06-22T06:27:04.936Z,37.8
2018-06-22T06:27:55.328Z,38
2018-06-22T06:28:43.970Z,38.1
2018-06-22T06:29:35.386Z,38.3
2018-06-22T06:30:25.474Z,38.4
2018-06-22T06:31:14.987Z,38.5
2018-06-22T06:32:05.119Z,38.6
2018-06-22T06:32:54.863Z,38.7
2018-06-22T06:33:45.176Z,38.8
2018-06-22T06:34:35.330Z,39
2018-06-22T06:35:25.637Z,39.1
2018-06-22T06:36:15.653Z,39.3
2018-06-22T06:37:05.432Z,39.4
2018-06-22T06:37:55.540Z,39.6
2018-06-22T06:38:46.088Z,39.7
2018-06-22T06:39:36.258Z,39.9
2018-06-22T06:40:26.326Z,39.9
2018-06-22T06:41:15.480Z,40.1
2018-06-22T06:42:04.908Z,40.1
2018-06-22T06:42:55.609Z,40.3
2018-06-22T06:43:45.392Z,40.4
2018-06-22T06:44:36.587Z,40.6
2018-06-22T06:45:26.097Z,40.7
2018-06-22T06:46:16.464Z,40.8
2018-06-22T06:47:06.207Z,41
2018-06-22T06:47:56.568Z,41.1
2018-06-22T06:48:46.357Z,41.2
2018-06-22T06:49:37.011Z,41.4
2018-06-22T06:50:26.739Z,41.4
2018-06-22T06:51:16.873Z,41.6
2018-06-22T06:52:06.848Z,41.8
2018-06-22T06:52:56.921Z,41.8
2018-06-22T06:53:46.715Z,41.9
2018-06-22T06:54:36.798Z,41.9
2018-06-22T06:55:26.648Z,42
2018-06-22T06:56:17.515Z,42.1
2018-06-22T06:57:07.016Z,42.3
2018-06-22T06:57:57.097Z,42.4
2018-06-22T06:58:47.673Z,42.5
2018-06-22T06:59:37.796Z,42.6
2018-06-22T07:00:27.239Z,42.8
2018-06-22T07:01:17.623Z,42.9
2018-06-22T07:02:07.672Z,42.9
2018-06-22T07:02:57.150Z,43.1
2018-06-22T07:03:47.256Z,43.2
2018-06-22T07:04:37.850Z,43.3
2018-06-22T07:05:27.926Z,43.4
2018-06-22T07:06:17.789Z,43.6
2018-06-22T07:07:08.354Z,43.7
2018-06-22T07:07:58.158Z,43.8
2018-06-22T07:08:48.162Z,44
2018-06-22T07:09:38.505Z,44.1
2018-06-22T07:10:27.744Z,44.3
2018-06-22T07:11:18.421Z,44.4
2018-06-22T07:12:08.168Z,44.5
2018-06-22T07:12:58.511Z,44.6
2018-06-22T07:13:48.288Z,44.8
2018-06-22T07:14:38.665Z,44.9
2018-06-22T07:15:28.704Z,45.1
2018-06-22T07:16:18.757Z,45.2
2018-06-22T07:17:08.891Z,45.4
2018-06-22T07:17:59.197Z,45.5
2018-06-22T07:18:49.325Z,45.6
2018-06-22T07:19:38.531Z,45.8
2018-06-22T07:20:28.819Z,45.9
2018-06-22T07:21:19.436Z,46
2018-06-22T07:22:08.653Z,46.1
2018-06-22T07:22:58.989Z,46.3
2018-06-22T07:23:49.641Z,46.4
2018-06-22T07:24:39.447Z,46.5
2018-06-22T07:25:28.641Z,46.6
2018-06-22T07:26:18.658Z,46.8
2018-06-22T07:27:08.834Z,46.9
2018-06-22T07:27:59.360Z,46.9
2018-06-22T07:28:49.731Z,46.8
2018-06-22T07:29:39.569Z,46.6
2018-06-22T07:30:29.604Z,46.5
2018-06-22T07:31:19.958Z,46.4
2018-06-22T07:32:10.324Z,46.6
2018-06-22T07:32:59.198Z,46.6
2018-06-22T07:33:50.111Z,46.8
2018-06-22T07:34:39.921Z,46.8
2018-06-22T07:35:30.329Z,46.8
2018-06-22T07:36:20.382Z,46.9
2018-06-22T07:37:10.131Z,46.9
2018-06-22T07:38:00.161Z,47
2018-06-22T07:38:50.801Z,47.1
2018-06-22T07:39:39.444Z,47.3
2018-06-22T07:40:30.924Z,47.4
2018-06-22T07:41:19.957Z,47.6
2018-06-22T07:42:11.019Z,47.7
2018-06-22T07:43:00.604Z,47.8
2018-06-22T07:43:50.766Z,47.9
2018-06-22T07:44:41.009Z,48.1
2018-06-22T07:45:30.279Z,48.3
2018-06-22T07:46:20.809Z,48.4
2018-06-22T07:47:11.172Z,48.5
2018-06-22T07:48:01.486Z,48.6
2018-06-22T07:48:50.969Z,48.8
2018-06-22T07:49:40.887Z,48.9
2018-06-22T07:50:31.127Z,49.1
2018-06-22T07:51:20.916Z,49.3
2018-06-22T07:52:11.559Z,49.4
2018-06-22T07:53:01.606Z,49.5
2018-06-22T07:53:51.685Z,49.6
2018-06-22T07:54:41.443Z,49.8
2018-06-22T07:55:31.231Z,49.9
2018-06-22T07:56:21.846Z,50
2018-06-22T07:57:12.168Z,50.1
2018-06-22T07:58:02.712Z,50.3
2018-06-22T07:58:52.370Z,50.4
2018-06-22T07:59:42.424Z,50.4
2018-06-22T08:00:32.502Z,50.6
2018-06-22T08:01:22.534Z,50.7
2018-06-22T08:02:12.560Z,50.8
2018-06-22T08:03:01.873Z,50.9
2018-06-22T08:03:52.191Z,51.1
2018-06-22T08:04:42.763Z,51.2
2018-06-22T08:05:32.809Z,51.4
2018-06-22T08:06:23.752Z,51.4
2018-06-22T08:07:12.945Z,51.6
2018-06-22T08:08:03.054Z,51.7
2018-06-22T08:08:53.109Z,51.8
2018-06-22T08:09:42.974Z,51.9
2018-06-22T08:10:33.221Z,52
2018-06-22T08:11:22.992Z,52.1
2018-06-22T08:12:12.837Z,52.2
2018-06-22T08:13:03.154Z,52.3
2018-06-22T08:13:52.939Z,52.4
2018-06-22T08:14:43.279Z,52.6
2018-06-22T08:15:32.793Z,52.6
2018-06-22T08:16:23.663Z,52.8
2018-06-22T08:17:13.441Z,52.8
2018-06-22T08:18:03.525Z,52.9
2018-06-22T08:18:53.662Z,53.1
2018-06-22T08:19:43.343Z,53.1
2018-06-22T08:20:33.708Z,53.3
2018-06-22T08:21:23.273Z,53.4
2018-06-22T08:22:13.563Z,53.4
2018-06-22T08:23:03.727Z,53.6
2018-06-22T08:23:54.284Z,53.7
2018-06-22T08:24:43.904Z,53.9
2018-06-22T08:25:34.153Z,54
2018-06-22T08:26:23.486Z,54.1
2018-06-22T08:27:14.264Z,54.2
2018-06-22T08:28:04.655Z,54.3
2018-06-22T08:28:53.828Z,54.4
2018-06-22T08:29:43.889Z,54.5
2018-06-22T08:30:34.758Z,54.6
2018-06-22T08:31:24.858Z,54.7
2018-06-22T08:32:14.087Z,54.8
2018-06-22T08:33:04.730Z,54.9
2018-06-22T08:33:54.312Z,55
2018-06-22T08:34:44.574Z,55.1
2018-06-22T08:35:34.895Z,55.3
2018-06-22T08:36:24.978Z,55.3
2018-06-22T08:37:14.480Z,55.4
2018-06-22T08:38:04.605Z,55.5
2018-06-22T08:38:54.617Z,55.6
2018-06-22T08:39:44.959Z,55.8
2018-06-22T08:40:35.579Z,55.8
2018-06-22T08:41:25.401Z,55.9
2018-06-22T08:42:16.328Z,56
2018-06-22T08:43:04.953Z,56.1
2018-06-22T08:43:55.527Z,56.2
2018-06-22T08:44:45.859Z,56.3
2018-06-22T08:45:35.940Z,56.4
2018-06-22T08:46:25.207Z,56.5
2018-06-22T08:47:15.819Z,56.6
2018-06-22T08:48:06.180Z,56.7
2018-06-22T08:48:56.594Z,56.8
2018-06-22T08:49:45.583Z,56.9
2018-06-22T08:50:35.753Z,56.9
2018-06-22T08:51:25.886Z,57
2018-06-22T08:52:15.717Z,57.1
2018-06-22T08:53:05.416Z,57.2
2018-06-22T08:53:56.342Z,57.3
2018-06-22T08:54:46.371Z,57.3
2018-06-22T08:55:36.173Z,57.4
2018-06-22T08:56:26.561Z,57.4
2018-06-22T08:57:16.119Z,57.5
2018-06-22T08:58:06.440Z,57.6
2018-06-22T08:58:56.718Z,57.6
2018-06-22T09:00:36.885Z,57.8
2018-06-22T09:01:28.117Z,57.9
2018-06-22T09:02:16.467Z,57.9
2018-06-22T09:03:07.168Z,58.1
2018-06-22T09:03:57.370Z,58.1
2018-06-22T09:04:47.239Z,58.2
2018-06-22T09:05:37.528Z,58.3
2018-06-22T09:06:26.736Z,58.4
2018-06-22T09:07:16.844Z,58.4
2018-06-22T09:09:46.736Z,58.6
2018-06-22T09:10:37.601Z,58.7
2018-06-22T09:11:27.402Z,58.8
2018-06-22T09:12:17.751Z,58.8
2018-06-22T09:13:07.811Z,58.9
2018-06-22T09:13:58.179Z,59.1
2018-06-22T09:14:47.954Z,59.1
2018-06-22T09:15:38.289Z,59.3
2018-06-22T09:16:27.543Z,59.3
2018-06-22T09:17:18.168Z,59.4
2018-06-22T09:18:07.683Z,59.4
2018-06-22T09:18:58.006Z,59.5
2018-06-22T09:19:48.386Z,59.6
2018-06-22T09:20:38.426Z,59.7
2018-06-22T09:21:28.201Z,59.8
2018-06-22T09:22:18.254Z,59.8
2018-06-22T09:23:08.348Z,59.9
2018-06-22T09:23:58.630Z,59.9
2018-06-22T09:24:48.158Z,59.9
2018-06-22T09:25:38.775Z,60
2018-06-22T09:26:28.358Z,60.1
2018-06-22T09:27:18.919Z,60.3
2018-06-22T09:28:08.706Z,60.3
2018-06-22T09:28:59.125Z,60.4
2018-06-22T09:29:48.907Z,60.5
2018-06-22T09:30:38.969Z,60.6
2018-06-22T09:31:29.920Z,60.7
2018-06-22T09:32:19.086Z,60.8
2018-06-22T09:33:09.470Z,60.9
2018-06-22T09:33:58.981Z,60.9
2018-06-22T09:34:49.578Z,61.1
2018-06-22T09:35:39.637Z,61.2
2018-06-22T09:36:29.704Z,61.3
2018-06-22T09:37:20.054Z,61.4
2018-06-22T09:38:08.481Z,61.4
2018-06-22T09:38:59.917Z,61.4
2018-06-22T09:39:50.220Z,61.5
2018-06-22T09:40:40.314Z,61.6
2018-06-22T09:41:30.407Z,61.6
2018-06-22T09:42:20.437Z,61.7
2018-06-22T09:43:10.227Z,61.8
2018-06-22T09:43:59.702Z,61.8
2018-06-22T09:44:50.346Z,61.9
2018-06-22T09:45:40.468Z,62
2018-06-22T09:46:29.428Z,62.1
2018-06-22T09:47:20.248Z,62.2
2018-06-22T09:48:09.267Z,62.3
2018-06-22T09:49:00.117Z,62.3
2018-06-22T09:49:50.159Z,62.4
2018-06-22T09:50:40.226Z,62.4
2018-06-22T09:51:30.085Z,62.5
2018-06-22T09:52:20.733Z,62.5
2018-06-22T09:53:11.412Z,62.6
2018-06-22T09:54:00.752Z,62.7
2018-06-22T09:54:51.093Z,62.8
2018-06-22T09:55:40.620Z,62.8
2018-06-22T09:56:31.519Z,62.8
2018-06-22T09:57:21.295Z,62.9
2018-06-22T09:58:11.160Z,63
2018-06-22T09:59:00.330Z,63.1
2018-06-22T09:59:50.475Z,63.2
2018-06-22T10:00:41.005Z,63.3
2018-06-22T10:01:30.885Z,63.4
2018-06-22T10:02:21.673Z,63.4
2018-06-22T10:03:11.277Z,63.5
2018-06-22T10:04:01.577Z,63.6
2018-06-22T10:04:52.837Z,63.8
2018-06-22T10:05:40.874Z,63.8
2018-06-22T10:06:31.768Z,63.9
2018-06-22T10:07:22.062Z,64
2018-06-22T10:08:12.498Z,64.1
2018-06-22T10:09:02.039Z,63.9
2018-06-22T10:09:52.238Z,63.7
2018-06-22T10:10:42.562Z,63.8
2018-06-22T10:11:33.961Z,63.9
2018-06-22T10:12:21.845Z,64
2018-06-22T10:13:12.748Z,64.1
2018-06-22T10:14:02.551Z,64.1
2018-06-22T10:14:52.938Z,64.2
2018-06-22T10:15:42.980Z,64.2
2018-06-22T10:16:33.070Z,64.3
2018-06-22T10:17:22.586Z,64.4
2018-06-22T10:18:13.146Z,64.4
2018-06-22T10:19:02.765Z,64.6
2018-06-22T10:19:52.749Z,64.7
2018-06-22T10:20:43.126Z,64.8
2018-06-22T10:21:33.463Z,64.9
2018-06-22T10:22:22.176Z,64.9
2018-06-22T10:23:13.011Z,65
2018-06-22T10:24:02.541Z,65.1
2018-06-22T10:24:52.866Z,65.1
2018-06-22T10:25:43.234Z,65.2
2018-06-22T10:26:33.611Z,65.3
2018-06-22T10:27:23.998Z,65.3
2018-06-22T10:28:14.002Z,65.4
2018-06-22T10:29:03.221Z,65.4
2018-06-22T10:29:54.095Z,65.4
2018-06-22T10:30:43.612Z,65.5
2018-06-22T10:31:34.025Z,65.6
2018-06-22T10:32:24.287Z,65.6
2018-06-22T10:33:13.467Z,64.8
2018-06-22T10:34:05.169Z,63.7
2018-06-22T10:34:53.891Z,62.6
2018-06-22T10:35:44.272Z,61.8
2018-06-22T10:36:34.043Z,61.1
2018-06-22T10:37:24.424Z,60.6
2018-06-22T10:38:14.481Z,60.3
2018-06-22T10:39:04.215Z,60.4
2018-06-22T10:39:54.599Z,61.1
2018-06-22T10:40:44.975Z,61.6
2018-06-22T10:41:35.013Z,62.2
2018-06-22T10:42:24.268Z,62.9
2018-06-22T10:43:14.876Z,63.4
2018-06-22T10:44:04.930Z,63.9
2018-06-22T10:44:55.292Z,64.3
2018-06-22T10:45:45.778Z,64.6
2018-06-22T10:46:35.135Z,64.1
2018-06-22T10:47:25.185Z,63.1
2018-06-22T10:48:14.983Z,62.2
2018-06-22T10:49:05.613Z,61.6
2018-06-22T10:49:54.837Z,61.3
2018-06-22T10:50:45.513Z,61.4
2018-06-22T10:51:36.679Z,61.6
2018-06-22T10:52:24.447Z,61.7
2018-06-22T10:53:15.353Z,61.6
2018-06-22T10:54:04.876Z,61.4
2018-06-22T10:54:55.477Z,61.1
2018-06-22T10:55:45.269Z,60.6
2018-06-22T10:56:35.914Z,60.2
2018-06-22T10:57:26.018Z,59.8
2018-06-22T10:58:15.297Z,59.5
2018-06-22T10:59:06.342Z,59.3
2018-06-22T10:59:56.604Z,59
2018-06-22T11:00:46.516Z,58.8
2018-06-22T11:02:26.619Z,58.4
2018-06-22T11:03:16.418Z,58.2
2018-06-22T11:04:06.726Z,58
2018-06-22T11:04:56.266Z,57.8
2018-06-22T11:05:47.132Z,57.6
2018-06-22T11:06:36.917Z,57.5
2018-06-22T11:07:25.988Z,57.3
2018-06-22T11:08:17.048Z,57.2
2018-06-22T11:09:07.159Z,57.1
2018-06-22T11:09:56.239Z,56.9
2018-06-22T11:10:46.710Z,56.8
2018-06-22T11:11:37.043Z,56.6
2018-06-22T11:12:26.874Z,56.6
2018-06-22T11:13:16.623Z,56.4
2018-06-22T11:14:08.570Z,56.3
2018-06-22T11:14:57.667Z,56.2
2018-06-22T11:15:47.755Z,56.1
2018-06-22T11:16:37.580Z,55.9
2018-06-22T11:17:27.624Z,55.8
2018-06-22T11:18:18.072Z,55.6
2018-06-22T11:19:08.025Z,55.4
2018-06-22T11:19:57.149Z,55.3
2018-06-22T11:20:48.071Z,55.1
2018-06-22T11:21:37.594Z,54.6
2018-06-22T11:22:27.629Z,54.1
2018-06-22T11:23:17.151Z,53.6
2018-06-22T11:24:08.363Z,53.1
2018-06-22T11:24:58.207Z,52.6
2018-06-22T11:25:47.965Z,52.2
2018-06-22T11:26:37.727Z,51.8
2018-06-22T11:27:28.333Z,51.4
2018-06-22T11:28:18.722Z,51.1
2018-06-22T11:29:08.229Z,50.8
2018-06-22T11:29:58.838Z,50.5
2018-06-22T11:30:48.830Z,50.3
2018-06-22T11:31:37.517Z,50
2018-06-22T11:32:28.672Z,49.8
2018-06-22T11:33:18.768Z,49.6
2018-06-22T11:34:09.199Z,49.4
2018-06-22T11:34:58.879Z,49.2
2018-06-22T11:35:50.076Z,49
2018-06-22T11:36:39.045Z,48.9
2018-06-22T11:37:29.374Z,48.7
2018-06-22T11:38:19.404Z,48.5
2018-06-22T11:39:09.203Z,48.4
2018-06-22T11:39:59.539Z,48.3
2018-06-22T11:40:49.315Z,48.1
2018-06-22T11:41:39.689Z,48
2018-06-22T11:42:29.470Z,47.9
2018-06-22T11:43:19.236Z,47.8
2018-06-22T11:44:09.641Z,47.6
2018-06-22T11:44:59.679Z,47.6
2018-06-22T11:45:49.987Z,47.4
2018-06-22T11:46:39.541Z,47.3
2018-06-22T11:47:29.369Z,47.3
2018-06-22T11:48:20.186Z,47.1
2018-06-22T11:49:09.981Z,47.1
2018-06-22T11:50:00.336Z,46.9
2018-06-22T11:50:49.894Z,46.9
2018-06-22T11:51:39.366Z,46.8
2018-06-22T11:52:29.963Z,46.8
2018-06-22T11:53:20.003Z,46.6
2018-06-22T11:54:09.242Z,46.6
2018-06-22T11:55:00.703Z,46.5
2018-06-22T11:55:50.537Z,46.4
2018-06-22T11:56:40.576Z,46.4
2018-06-22T11:57:30.098Z,46.4
2018-06-22T11:58:20.662Z,46.3
2018-06-22T11:59:12.043Z,46.3
2018-06-22T12:00:01.089Z,46.2
2018-06-22T12:00:51.199Z,46.1
2018-06-22T12:01:41.427Z,46.1
2018-06-22T12:02:30.987Z,46.1
2018-06-22T12:03:21.073Z,46
2018-06-22T12:04:11.250Z,46
2018-06-22T12:05:01.481Z,45.9
2018-06-22T12:05:51.299Z,45.9
2018-06-22T12:06:41.639Z,45.8
2018-06-22T12:07:31.728Z,45.8
2018-06-22T12:08:21.465Z,45.8
2018-06-22T12:09:10.705Z,45.7
2018-06-22T12:10:01.045Z,45.7
2018-06-22T12:10:51.385Z,45.7
2018-06-22T12:11:41.779Z,45.6
2018-06-22T12:12:31.512Z,45.6
2018-06-22T12:13:21.625Z,45.6
2018-06-22T12:14:12.267Z,45.6
2018-06-22T12:15:01.821Z,45.6
2018-06-22T12:15:50.623Z,45.5
2018-06-22T12:16:42.114Z,45.5
2018-06-22T12:17:32.450Z,45.4
2018-06-22T12:18:22.224Z,45.4
2018-06-22T12:19:12.847Z,45.4
2018-06-22T12:20:02.388Z,45.4
2018-06-22T12:20:52.727Z,45.4
2018-06-22T12:21:42.244Z,45.4
2018-06-22T12:22:32.596Z,45.3
2018-06-22T12:23:22.076Z,45.3
2018-06-22T12:24:12.967Z,45.3
2018-06-22T12:25:03.014Z,45.3
2018-06-22T12:25:52.811Z,45.3
2018-06-22T12:26:42.866Z,45.2
2018-06-22T12:27:32.927Z,45.2
2018-06-22T12:28:23.296Z,45.2
2018-06-22T12:29:12.504Z,45.1
2018-06-22T12:30:03.509Z,45.1
2018-06-22T12:30:53.579Z,45.1
2018-06-22T12:31:43.016Z,45.1
2018-06-22T12:32:33.338Z,45.1
2018-06-22T12:33:23.253Z,45.1
2018-06-22T12:34:13.255Z,45
2018-06-22T12:35:03.002Z,44.9
2018-06-22T12:35:53.343Z,44.8
2018-06-22T12:36:43.635Z,44.8
2018-06-22T12:37:33.735Z,44.8
2018-06-22T12:38:24.126Z,44.8
2018-06-22T12:39:13.866Z,44.8
2018-06-22T12:40:03.944Z,44.8
2018-06-22T12:40:54.305Z,44.7
2018-06-22T12:41:44.065Z,44.6
2018-06-22T12:42:34.416Z,44.6
2018-06-22T12:43:23.989Z,44.6
2018-06-22T12:44:14.251Z,44.5
2018-06-22T12:45:05.015Z,44.4
2018-06-22T12:45:54.387Z,44.3
2018-06-22T12:46:44.524Z,44.3
2018-06-22T12:47:34.772Z,44.3
2018-06-22T12:48:24.322Z,44.3
2018-06-22T12:49:14.640Z,44.2
2018-06-22T12:50:04.752Z,44.2
2018-06-22T12:50:54.520Z,44.2
2018-06-22T12:51:44.615Z,44.1
2018-06-22T12:52:34.633Z,44.1
2018-06-22T12:53:24.708Z,44.1
2018-06-22T12:54:14.790Z,44.1
2018-06-22T12:55:05.487Z,44.1
2018-06-22T12:55:54.648Z,44.1
2018-06-22T12:56:44.788Z,44
2018-06-22T12:57:35.752Z,43.9
2018-06-22T12:58:25.619Z,43.9
2018-06-22T12:59:15.753Z,43.9
2018-06-22T13:00:05.247Z,43.9
2018-06-22T13:00:55.580Z,43.9
2018-06-22T13:01:45.942Z,43.8
2018-06-22T13:02:35.739Z,43.8
2018-06-22T13:03:25.022Z,43.8
2018-06-22T13:04:15.266Z,43.8
2018-06-22T13:05:05.349Z,43.8
2018-06-22T13:05:55.492Z,43.8
2018-06-22T13:06:46.290Z,43.8
2018-06-22T13:07:36.347Z,43.8
2018-06-22T13:08:25.281Z,43.8
2018-06-22T13:09:16.660Z,43.8
2018-06-22T13:10:06.217Z,43.8
2018-06-22T13:10:56.486Z,43.8
2018-06-22T13:11:46.656Z,43.8
2018-06-22T13:12:36.581Z,43.9
2018-06-22T13:13:26.513Z,43.9
2018-06-22T13:14:16.003Z,43.9
2018-06-22T13:15:06.613Z,43.8
2018-06-22T13:15:56.939Z,43.9
2018-06-22T13:16:46.150Z,43.8
2018-06-22T13:17:36.534Z,43.9
2018-06-22T13:18:27.122Z,43.9
2018-06-22T13:19:17.232Z,43.8
2018-06-22T13:20:06.180Z,43.8
2018-06-22T13:20:57.023Z,43.8
2018-06-22T13:21:47.419Z,43.8
2018-06-22T13:22:36.357Z,43.8
2018-06-22T13:23:27.241Z,43.8
2018-06-22T13:24:17.559Z,43.8
2018-06-22T13:25:07.389Z,43.8
2018-06-22T13:25:57.781Z,43.8
2018-06-22T13:26:47.625Z,43.8
2018-06-22T13:27:37.578Z,43.8
2018-06-22T13:28:27.353Z,43.7
2018-06-22T13:29:17.955Z,43.7
2018-06-22T13:30:07.794Z,43.7
2018-06-22T13:30:57.986Z,43.7
2018-06-22T13:31:48.179Z,43.7
2018-06-22T13:32:37.398Z,43.6
2018-06-22T13:33:28.061Z,43.6
2018-06-22T13:34:18.094Z,43.6
2018-06-22T13:35:08.151Z,43.6
2018-06-22T13:35:58.478Z,43.6
2018-06-22T13:36:48.292Z,43.6
2018-06-22T13:37:38.354Z,43.6
2018-06-22T13:38:28.428Z,43.6
2018-06-22T13:39:18.227Z,43.6
2018-06-22T13:40:08.529Z,43.6
2018-06-22T13:40:58.336Z,43.6
2018-06-22T13:41:48.425Z,43.5
2018-06-22T13:42:39.007Z,43.5
2018-06-22T13:43:28.515Z,43.5
2018-06-22T13:44:19.146Z,43.5
2018-06-22T13:45:09.213Z,43.5
2018-06-22T13:45:59.282Z,43.4
2018-06-22T13:46:48.255Z,43.4
2018-06-22T13:47:38.572Z,43.4
2018-06-22T13:48:29.452Z,43.4
2018-06-22T13:49:19.525Z,43.4
2018-06-22T13:50:09.330Z,43.4
2018-06-22T13:50:58.812Z,43.4
2018-06-22T13:51:49.491Z,43.4
2018-06-22T13:52:39.815Z,43.4
2018-06-22T13:53:29.900Z,43.4
2018-06-22T13:54:19.695Z,43.3
2018-06-22T13:55:09.210Z,43.4
2018-06-22T13:55:59.502Z,43.3
2018-06-22T13:56:50.749Z,43.3
2018-06-22T13:57:39.753Z,43.3
2018-06-22T13:58:29.966Z,43.3
2018-06-22T13:59:19.751Z,43.3
2018-06-22T14:00:10.429Z,43.3
2018-06-22T14:00:59.942Z,43.3
2018-06-22T14:01:50.548Z,43.3
2018-06-22T14:02:40.289Z,43.3
2018-06-22T14:03:30.347Z,43.2
2018-06-22T14:04:20.789Z,43.2
2018-06-22T14:05:09.940Z,43.2
2018-06-22T14:06:00.297Z,43.2
2018-06-22T14:06:50.369Z,43.2
2018-06-22T14:07:40.433Z,43.1
2018-06-22T14:08:30.707Z,43.1
2018-06-22T14:09:21.934Z,43.1
2018-06-22T14:10:10.861Z,43.1
2018-06-22T14:11:00.962Z,43.1
2018-06-22T14:11:51.026Z,43.1
2018-06-22T14:12:40.587Z,43.1
2018-06-22T14:13:31.106Z,43.1
2018-06-22T14:14:21.186Z,43.1
2018-06-22T14:15:10.975Z,43.1
2018-06-22T14:16:01.302Z,43
2018-06-22T14:16:51.660Z,43
2018-06-22T14:17:41.731Z,43
2018-06-22T14:18:31.802Z,43
2018-06-22T14:19:21.844Z,43
2018-06-22T14:20:12.548Z,43
2018-06-22T14:21:01.719Z,43
2018-06-22T14:21:51.271Z,42.9
2018-06-22T14:22:40.989Z,42.9
2018-06-22T14:23:31.631Z,42.9
2018-06-22T14:24:21.690Z,42.9
2018-06-22T14:25:12.063Z,42.9
2018-06-22T14:26:02.080Z,42.9
2018-06-22T14:26:52.165Z,42.9
2018-06-22T14:27:42.228Z,42.9
2018-06-22T14:28:32.285Z,42.9
2018-06-22T14:29:22.419Z,42.9
2018-06-22T14:30:12.682Z,42.8
2018-06-22T14:31:03.199Z,42.9
2018-06-22T14:31:52.563Z,42.8
2018-06-22T14:32:42.314Z,42.8
2018-06-22T14:33:32.703Z,42.8
2018-06-22T14:34:22.722Z,42.8
2018-06-22T14:35:12.262Z,42.8
2018-06-22T14:36:02.867Z,42.8
2018-06-22T14:36:53.226Z,42.8
2018-06-22T14:37:42.433Z,42.8
2018-06-22T14:38:32.840Z,42.8
2018-06-22T14:39:22.641Z,42.8
2018-06-22T14:40:12.988Z,42.8
2018-06-22T14:41:03.045Z,42.8
2018-06-22T14:41:52.611Z,42.6
2018-06-22T14:42:42.624Z,42.6
2018-06-22T14:43:34.171Z,42.6
2018-06-22T14:44:23.342Z,42.6
2018-06-22T14:45:13.383Z,42.6
2018-06-22T14:46:03.179Z,42.6
2018-06-22T14:46:53.294Z,42.6
2018-06-22T14:47:43.325Z,42.5
2018-06-22T14:48:33.367Z,42.5
2018-06-22T14:49:23.669Z,42.5